Time;durP1;ratioP1;P1;durP2;ratioP2;P2;SDS_P1;SDS_P2;PMS_P1;PMS_P2;Temp;Humidity;BMP_temperature;BMP_pressure;BME280_temperature;BME280_humidity;BME280_pressure;Samples;Min_cycle;Max_cycle;Signal;HPM_P1;HPM_P2
2022/05/22 00:00:11;;;;;;;;;;;;;;;13.67;66.46;97107.59;30001;983;1886;-57
2022/05/22 00:00:43;;;;;;;;;;;;;;;13.70;66.58;97106.19;30001;983;1881;-57
2022/05/22 00:01:15;;;;;;;;;;;;;;;13.70;66.29;97106.97;30001;983;1886;-57
2022/05/22 00:01:46;;;;;;;;;;;;;;;13.71;66.18;97099.59;30001;982;1882;-57
2022/05/22 00:02:17;;;;;;;;;;;;;;;13.73;65.73;97102.84;30001;982;1886;-57
2022/05/22 00:02:52;;;;;;;;;;;;;;;13.73;66.15;97100.91;30001;982;1882;-57
2022/05/22 00:03:23;;;;;;;;;;;;;;;13.75;65.54;97103.34;30001;982;1873;-57
2022/05/22 00:03:54;;;;;;;;;;;;;;;13.76;65.81;97099.50;30001;982;1873;-57
2022/05/22 00:04:26;;;;;;;;;;;;;;;13.78;65.32;97091.81;30001;982;1886;-56
2022/05/22 00:04:57;;;;;;;;;;;;;;;13.79;65.46;97101.62;30001;983;1881;-57
2022/05/22 00:05:28;;;;;;;;;;;;;;;13.80;65.09;97094.25;30001;983;1885;-56
2022/05/22 00:05:59;;;;;;;;;;;;;;;13.81;65.36;97093.12;30001;983;1881;-57
2022/05/22 00:06:29;;;;;;;;;;;;;;;13.82;64.91;97095.53;30001;983;1886;-56
2022/05/22 00:07:00;;;;;;;;;;;;;;;13.83;65.37;97094.44;30001;983;1881;-57
2022/05/22 00:07:31;;;;;;;;;;;;;;;13.84;64.86;97097.97;30001;983;1886;-56
2022/05/22 00:08:02;;;;;;;;;;;;;;;13.86;65.42;97101.97;30001;983;1868;-57
2022/05/22 00:08:33;;;;;;;;;;;;;;;13.88;64.90;97104.37;30001;983;1877;-56
2022/05/22 00:09:05;;;;;;;;;;;;;;;13.88;65.24;97102.47;30001;982;1882;-57
2022/05/22 00:09:37;;;;;;;;;;;;;;;13.89;64.81;97098.63;30001;982;1886;-56
2022/05/22 00:10:08;;;;;;;;;;;;;;;13.91;64.91;97101.84;30001;986;1868;-57
2022/05/22 00:10:40;;;;;;;;;;;;;;;13.93;64.63;97107.00;30001;982;1877;-57
2022/05/22 00:11:15;;;;;;;;;;;;;;;13.93;64.89;97105.09;30001;982;1882;-56
2022/05/22 00:11:46;;;;;;;;;;;;;;;13.94;64.41;97100.44;30001;982;1886;-57
2022/05/22 00:12:18;;;;;;;;;;;;;;;13.95;64.74;97096.59;30001;983;1881;-56
2022/05/22 00:12:49;;;;;;;;;;;;;;;13.95;64.35;97102.03;30001;983;1885;-56
2022/05/22 00:13:23;;;;;;;;;;;;;;;13.96;64.44;97103.66;30001;963;1901;-56
2022/05/22 00:13:54;;;;;;;;;;;;;;;13.96;64.60;97099.00;30001;983;1885;-57
2022/05/22 00:14:25;;;;;;;;;;;;;;;13.95;64.31;97097.41;30001;983;1868;-55
2022/05/22 00:14:56;;;;;;;;;;;;;;;13.94;64.16;97095.78;30001;983;1877;-56
2022/05/22 00:15:27;;;;;;;;;;;;;;;13.97;64.37;97097.09;30001;983;1868;-57
2022/05/22 00:16:48;;;;;;;;;;;;;;;14.00;63.86;97094.56;30001;982;1882;-57
2022/05/22 00:17:19;;;;;;;;;;;;;;;14.00;63.57;97094.56;30001;982;1886;-57
2022/05/22 00:17:50;;;;;;;;;;;;;;;14.00;63.65;97097.28;30001;982;1882;-57
2022/05/22 00:18:21;;;;;;;;;;;;;;;13.98;63.51;97093.25;30001;982;1886;-56
2022/05/22 00:18:51;;;;;;;;;;;;;;;13.95;64.70;97102.84;30001;982;1882;-57
2022/05/22 00:19:24;;;;;;;;;;;;;;;13.92;64.37;97098.00;30001;982;1886;-57
2022/05/22 00:19:55;;;;;;;;;;;;;;;13.90;64.28;97094.78;30001;983;1868;-57
2022/05/22 00:20:26;;;;;;;;;;;;;;;13.91;64.06;97096.41;30001;983;1864;-56
2022/05/22 00:20:56;;;;;;;;;;;;;;;13.93;64.17;97091.44;30001;983;1881;-56
2022/05/22 00:21:27;;;;;;;;;;;;;;;13.95;63.95;97091.13;30001;983;1885;-55
2022/05/22 00:21:58;;;;;;;;;;;;;;;13.96;63.85;97090.81;30001;983;1881;-56
2022/05/22 00:22:29;;;;;;;;;;;;;;;13.96;63.68;97093.56;30001;968;1908;-56
2022/05/22 00:22:59;;;;;;;;;;;;;;;13.97;63.85;97094.34;30001;983;1881;-56
2022/05/22 00:23:34;;;;;;;;;;;;;;;13.96;63.94;97093.56;30001;986;1886;-56
2022/05/22 00:24:06;;;;;;;;;;;;;;;13.96;63.87;97090.81;30001;982;1882;-57
2022/05/22 00:24:37;;;;;;;;;;;;;;;13.96;64.16;97088.09;30001;982;1873;-55
2022/05/22 00:25:10;;;;;;;;;;;;;;;13.97;63.96;97089.72;30001;982;1873;-58
2022/05/22 00:25:41;;;;;;;;;;;;;;;13.98;63.11;97094.06;30001;982;1886;-57
2022/05/22 00:26:12;;;;;;;;;;;;;;;13.99;62.97;97098.41;30001;982;1882;-58
2022/05/22 00:26:43;;;;;;;;;;;;;;;14.01;62.84;97085.25;30001;982;1886;-56
2022/05/22 00:27:15;;;;;;;;;;;;;;;14.01;63.17;97085.25;30001;982;1882;-57
2022/05/22 00:27:46;;;;;;;;;;;;;;;13.96;64.49;97092.75;30001;983;1885;-56
2022/05/22 00:28:16;;;;;;;;;;;;;;;13.91;64.47;97084.69;30001;983;1868;-57
2022/05/22 00:28:47;;;;;;;;;;;;;;;13.83;65.73;97088.97;30001;983;1877;-57
2022/05/22 00:29:19;;;;;;;;;;;;;;;13.76;65.22;97080.41;30001;983;1881;-56
2022/05/22 00:29:50;;;;;;;;;;;;;;;13.70;65.20;97085.16;30001;983;1886;-57
2022/05/22 00:30:21;;;;;;;;;;;;;;;13.64;65.83;97080.94;30001;983;1881;-55
2022/05/22 00:30:52;;;;;;;;;;;;;;;13.60;66.10;97090.84;30001;983;1886;-57
2022/05/22 00:31:23;;;;;;;;;;;;;;;13.57;66.07;97091.47;30001;983;1882;-55
2022/05/22 00:31:54;;;;;;;;;;;;;;;13.53;66.70;97085.00;30001;982;1873;-56
2022/05/22 00:32:25;;;;;;;;;;;;;;;13.53;66.17;97084.19;30001;982;1873;-57
2022/05/22 00:33:00;;;;;;;;;;;;;;;13.55;66.06;97082.78;30001;982;1886;-55
2022/05/22 00:33:32;;;;;;;;;;;;;;;13.59;65.72;97082.97;30001;982;1882;-56
2022/05/22 00:34:03;;;;;;;;;;;;;;;13.61;66.08;97086.19;30001;982;1886;-58
2022/05/22 00:34:35;;;;;;;;;;;;;;;13.63;65.63;97083.97;30001;983;1868;-56
2022/05/22 00:35:07;;;;;;;;;;;;;;;13.64;65.50;97083.66;30001;983;1877;-56
2022/05/22 00:35:37;;;;;;;;;;;;;;;13.64;65.82;97078.22;30001;983;1881;-56
2022/05/22 00:36:08;;;;;;;;;;;;;;;13.64;65.86;97082.87;30001;983;1885;-55
2022/05/22 00:36:39;;;;;;;;;;;;;;;13.64;65.74;97077.41;30001;983;1881;-57
2022/05/22 00:37:12;;;;;;;;;;;;;;;13.64;65.68;97080.94;30001;983;1886;-57
2022/05/22 00:37:43;;;;;;;;;;;;;;;13.64;65.59;97080.13;30001;983;1882;-56
2022/05/22 00:38:15;;;;;;;;;;;;;;;13.65;65.49;97079.03;30001;983;1886;-56
2022/05/22 00:38:46;;;;;;;;;;;;;;;13.65;65.74;97088.00;30001;983;1881;-56
2022/05/22 00:39:17;;;;;;;;;;;;;;;13.65;65.72;97081.75;30001;982;1886;-57
2022/05/22 00:39:48;;;;;;;;;;;;;;;13.64;65.89;97080.13;30001;982;1869;-56
2022/05/22 00:40:19;;;;;;;;;;;;;;;13.62;66.40;97082.37;30001;982;1864;-56
2022/05/22 00:40:50;;;;;;;;;;;;;;;13.58;66.13;97081.34;30001;982;1882;-55
2022/05/22 00:41:21;;;;;;;;;;;;;;;13.51;66.78;97072.81;30001;982;1886;-56
2022/05/22 00:41:55;;;;;;;;;;;;;;;13.45;66.31;97071.31;30001;983;1881;-56
2022/05/22 00:42:26;;;;;;;;;;;;;;;13.43;67.06;97087.16;30001;983;1768;-57
2022/05/22 00:42:59;;;;;;;;;;;;;;;13.40;67.22;97086.66;30001;983;1853;-57
2022/05/22 00:43:31;;;;;;;;;;;;;;;13.40;66.91;97074.97;30001;983;1886;-55
2022/05/22 00:44:02;;;;;;;;;;;;;;;13.41;66.61;97077.38;30001;983;1881;-58
2022/05/22 00:44:33;;;;;;;;;;;;;;;13.43;66.99;97073.53;30001;983;1886;-57
2022/05/22 00:45:06;;;;;;;;;;;;;;;13.46;66.20;97072.94;30001;983;1882;-57
2022/05/22 00:45:37;;;;;;;;;;;;;;;13.47;66.26;97075.34;30001;983;1886;-56
2022/05/22 00:46:11;;;;;;;;;;;;;;;13.48;66.37;97076.97;30001;983;1881;-57
2022/05/22 00:46:41;;;;;;;;;;;;;;;13.48;66.81;97076.97;30001;982;1886;-57
2022/05/22 00:47:15;;;;;;;;;;;;;;;13.47;66.52;97080.81;30001;982;1882;-56
2022/05/22 00:47:46;;;;;;;;;;;;;;;13.48;66.20;97076.16;30001;982;1873;-56
2022/05/22 00:48:18;;;;;;;;;;;;;;;13.48;66.24;97073.44;30001;982;1873;-57
2022/05/22 00:48:53;;;;;;;;;;;;;;;13.49;66.77;97067.69;30001;982;1886;-57
2022/05/22 00:49:27;;;;;;;;;;;;;;;13.50;66.19;97072.00;30001;983;1881;-56
2022/05/22 00:50:00;;;;;;;;;;;;;;;13.51;66.11;97067.37;30001;983;1885;-57
2022/05/22 00:50:31;;;;;;;;;;;;;;;13.52;65.92;97075.22;30001;983;1881;-56
2022/05/22 00:51:04;;;;;;;;;;;;;;;13.55;66.13;97071.06;30001;983;1886;-56
2022/05/22 00:51:42;;;;;;;;;;;;;;;13.55;65.77;97068.34;30001;983;1881;-58
2022/05/22 00:52:17;;;;;;;;;;;;;;;13.56;65.65;97072.69;30001;983;1886;-58
2022/05/22 00:52:55;;;;;;;;;;;;;;;13.58;65.36;97070.47;30001;983;1868;-57
2022/05/22 00:53:30;;;;;;;;;;;;;;;13.59;65.62;97069.34;30001;983;1864;-58
2022/05/22 00:54:04;;;;;;;;;;;;;;;13.59;65.38;97072.88;30001;983;1882;-56
2022/05/22 00:54:38;;;;;;;;;;;;;;;13.60;65.20;97065.50;30001;982;1886;-58
2022/05/22 00:55:14;;;;;;;;;;;;;;;13.60;65.47;97068.22;30001;982;1882;-56
2022/05/22 00:55:45;;;;;;;;;;;;;;;13.62;65.46;97057.81;30001;982;1886;-58
2022/05/22 00:56:20;;;;;;;;;;;;;;;13.62;65.07;97063.28;30001;982;1882;-57
2022/05/22 00:57:13;;;;;;;;;;;;;;;13.62;65.16;97066.81;30001;983;1872;-57
2022/05/22 00:57:50;;;;;;;;;;;;;;;13.64;64.83;97059.13;30001;983;1855;-57
2022/05/22 00:58:24;;;;;;;;;;;;;;;13.63;65.83;97067.63;30001;983;1872;-57
2022/05/22 00:58:56;;;;;;;;;;;;;;;13.59;66.66;97066.63;30001;983;1872;-57
2022/05/22 00:59:29;;;;;;;;;;;;;;;13.52;67.02;97067.03;30001;983;1886;-57
2022/05/22 01:00:05;;;;;;;;;;;;;;;13.47;66.75;97063.66;30001;983;1881;-57
2022/05/22 01:00:37;;;;;;;;;;;;;;;13.46;66.62;97070.22;30001;983;1847;-57
2022/05/22 01:01:08;;;;;;;;;;;;;;;13.46;66.37;97062.03;30001;983;1881;-56
2022/05/22 01:01:40;;;;;;;;;;;;;;;13.47;66.08;97069.09;30001;983;1886;-56
2022/05/22 01:02:13;;;;;;;;;;;;;;;13.49;66.13;97066.87;30001;982;1882;-57
2022/05/22 01:03:36;;;;;;;;;;;;;;;13.51;65.87;97064.66;30001;982;1869;-57
2022/05/22 01:04:11;;;;;;;;;;;;;;;13.51;65.67;97061.91;30001;982;1878;-57
2022/05/22 01:04:44;;;;;;;;;;;;;;;13.51;65.54;97067.37;30001;983;1881;-58
2022/05/22 01:05:15;;;;;;;;;;;;;;;13.50;65.37;97061.13;30001;983;1886;-56
2022/05/22 01:05:46;;;;;;;;;;;;;;;13.49;66.29;97066.87;30001;983;1881;-56
2022/05/22 01:06:20;;;;;;;;;;;;;;;13.46;66.28;97070.22;30001;983;1885;-57
2022/05/22 01:06:52;;;;;;;;;;;;;;;13.41;66.73;97066.47;30001;983;1881;-57
2022/05/22 01:07:23;;;;;;;;;;;;;;;13.36;67.30;97072.03;30001;983;1886;-56
2022/05/22 01:07:56;;;;;;;;;;;;;;;13.34;66.95;97070.72;30001;983;1882;-54
2022/05/22 01:08:27;;;;;;;;;;;;;;;13.33;66.48;97069.91;30001;983;1886;-57
2022/05/22 01:08:58;;;;;;;;;;;;;;;13.33;66.65;97064.47;30001;982;1868;-57
2022/05/22 01:09:29;;;;;;;;;;;;;;;13.33;66.50;97069.13;30001;982;1877;-58
2022/05/22 01:09:59;;;;;;;;;;;;;;;13.33;66.44;97066.37;30001;982;1882;-57
2022/05/22 01:10:44;;;;;;;;;;;;;;;13.33;66.50;97063.66;30001;982;1886;-56
2022/05/22 01:11:21;;;;;;;;;;;;;;;13.32;66.44;97071.03;30001;982;1882;-58
2022/05/22 01:11:53;;;;;;;;;;;;;;;13.31;66.19;97060.44;30001;983;1885;-57
2022/05/22 01:12:28;;;;;;;;;;;;;;;13.31;66.84;97061.25;30001;983;1881;-58
2022/05/22 01:12:59;;;;;;;;;;;;;;;13.27;67.15;97065.69;30001;962;1906;-56
2022/05/22 01:13:35;;;;;;;;;;;;;;;13.25;67.22;97057.00;30001;983;1881;-56
2022/05/22 01:14:09;;;;;;;;;;;;;;;13.25;67.42;97062.47;30001;983;1873;-57
2022/05/22 01:14:42;;;;;;;;;;;;;;;13.23;67.82;97053.78;30001;983;1873;-57
2022/05/22 01:15:14;;;;;;;;;;;;;;;13.22;67.58;97063.06;30001;983;1886;-58
2022/05/22 01:15:46;;;;;;;;;;;;;;;13.21;67.71;97061.44;30001;983;1881;-58
2022/05/22 01:16:17;;;;;;;;;;;;;;;13.22;67.08;97057.63;30001;982;1886;-57
2022/05/22 01:16:49;;;;;;;;;;;;;;;13.24;67.26;97058.13;30001;982;1881;-58
2022/05/22 01:17:19;;;;;;;;;;;;;;;13.25;67.05;97051.56;30001;982;1873;-57
2022/05/22 01:17:51;;;;;;;;;;;;;;;13.26;66.96;97053.19;30001;982;1873;-58
2022/05/22 01:18:25;;;;;;;;;;;;;;;13.28;66.20;97045.50;30001;982;1873;-57
2022/05/22 01:18:57;;;;;;;;;;;;;;;13.32;65.74;97042.97;30001;982;1873;-56
2022/05/22 01:19:28;;;;;;;;;;;;;;;13.33;65.15;97048.12;30001;983;1885;-57
2022/05/22 01:20:00;;;;;;;;;;;;;;;13.34;65.48;97041.56;30001;983;1881;-58
2022/05/22 01:20:34;;;;;;;;;;;;;;;13.35;65.57;97042.34;30001;983;1885;-57
2022/05/22 01:21:09;;;;;;;;;;;;;;;13.34;65.61;97044.28;30001;983;1785;-57
2022/05/22 01:21:41;;;;;;;;;;;;;;;13.35;65.33;97045.09;30001;983;1885;-58
2022/05/22 01:22:15;;;;;;;;;;;;;;;13.34;65.37;97040.75;30001;983;1881;-57
2022/05/22 01:22:45;;;;;;;;;;;;;;;13.33;65.61;97039.94;30001;983;1873;-58
2022/05/22 01:23:17;;;;;;;;;;;;;;;13.31;66.47;97039.44;30001;983;1873;-58
2022/05/22 01:23:49;;;;;;;;;;;;;;;13.30;66.27;97043.28;30001;982;1886;-58
2022/05/22 01:24:23;;;;;;;;;;;;;;;13.29;65.91;97038.13;30001;982;1869;-56
2022/05/22 01:24:58;;;;;;;;;;;;;;;13.29;65.73;97047.12;30001;982;1877;-57
2022/05/22 01:25:29;;;;;;;;;;;;;;;13.30;66.38;97037.81;30001;982;1882;-57
2022/05/22 01:26:00;;;;;;;;;;;;;;;13.29;66.08;97041.66;30001;982;1886;-57
2022/05/22 01:26:31;;;;;;;;;;;;;;;13.29;66.51;97041.66;30001;982;1882;-59
2022/05/22 01:27:04;;;;;;;;;;;;;;;13.27;66.29;97043.09;30001;983;1872;-55
2022/05/22 01:27:36;;;;;;;;;;;;;;;13.27;66.53;97038.44;30001;983;1872;-57
2022/05/22 01:28:08;;;;;;;;;;;;;;;13.26;66.51;97047.72;30001;983;1885;-56
2022/05/22 01:28:38;;;;;;;;;;;;;;;13.25;66.56;97048.03;30001;983;1868;-57
2022/05/22 01:29:09;;;;;;;;;;;;;;;13.24;66.70;97049.13;30001;983;1877;-57
2022/05/22 01:29:40;;;;;;;;;;;;;;;13.21;66.79;97050.56;30001;964;1887;-58
2022/05/22 01:30:14;;;;;;;;;;;;;;;13.20;66.67;97048.94;30001;983;1877;-58
2022/05/22 01:30:45;;;;;;;;;;;;;;;13.18;67.22;97044.91;30001;983;1882;-57
2022/05/22 01:31:15;;;;;;;;;;;;;;;13.16;67.39;97042.53;30001;982;1886;-57
2022/05/22 01:31:46;;;;;;;;;;;;;;;13.13;67.78;97054.00;30001;982;1882;-57
2022/05/22 01:32:17;;;;;;;;;;;;;;;13.13;67.38;97045.81;30001;982;1886;-57
2022/05/22 01:32:51;;;;;;;;;;;;;;;13.11;67.47;97049.97;30001;982;1869;-56
2022/05/22 01:33:22;;;;;;;;;;;;;;;13.11;67.30;97061.66;30001;982;1877;-57
2022/05/22 01:33:53;;;;;;;;;;;;;;;13.11;67.36;97056.22;30001;982;1869;-56
2022/05/22 01:34:24;;;;;;;;;;;;;;;13.11;67.65;97058.94;30001;982;1877;-57
2022/05/22 01:34:55;;;;;;;;;;;;;;;13.10;67.90;97060.03;30001;983;1881;-55
2022/05/22 01:35:27;;;;;;;;;;;;;;;13.07;67.85;97063.38;30001;983;1885;-57
2022/05/22 01:35:58;;;;;;;;;;;;;;;13.06;68.34;97065.28;30001;983;1881;-57
2022/05/22 01:36:29;;;;;;;;;;;;;;;13.04;67.96;97055.81;30001;983;1886;-57
2022/05/22 01:37:03;;;;;;;;;;;;;;;13.04;68.03;97066.72;30001;983;1881;-56
2022/05/22 01:37:35;;;;;;;;;;;;;;;13.04;68.28;97061.25;30001;983;1872;-56
2022/05/22 01:38:06;;;;;;;;;;;;;;;13.01;68.81;97050.97;30001;983;1873;-56
2022/05/22 01:38:37;;;;;;;;;;;;;;;12.98;68.19;97057.03;30001;983;1886;-57
2022/05/22 01:39:09;;;;;;;;;;;;;;;12.98;68.56;97059.75;30001;982;1881;-55
2022/05/22 01:39:40;;;;;;;;;;;;;;;12.95;69.04;97055.72;30001;982;1886;-57
2022/05/22 01:40:16;;;;;;;;;;;;;;;12.95;68.65;97057.63;30001;982;1882;-57
2022/05/22 01:40:47;;;;;;;;;;;;;;;12.95;68.46;97063.06;30001;982;1886;-56
2022/05/22 01:41:18;;;;;;;;;;;;;;;12.94;69.79;97054.09;30001;983;1881;-57
2022/05/22 01:41:50;;;;;;;;;;;;;;;12.90;69.70;97060.44;30001;983;1872;-56
2022/05/22 01:42:21;;;;;;;;;;;;;;;12.89;69.58;97058.84;30001;983;1872;-57
2022/05/22 01:42:52;;;;;;;;;;;;;;;12.86;70.06;97054.00;30001;983;1886;-58
2022/05/22 01:43:23;;;;;;;;;;;;;;;12.81;70.68;97060.38;30001;983;1881;-57
2022/05/22 01:43:54;;;;;;;;;;;;;;;12.74;71.29;97057.25;30001;983;1886;-57
2022/05/22 01:44:25;;;;;;;;;;;;;;;12.69;71.20;97058.16;30001;983;1881;-56
2022/05/22 01:44:56;;;;;;;;;;;;;;;12.67;71.04;97054.91;30001;983;1886;-56
2022/05/22 01:45:30;;;;;;;;;;;;;;;12.66;71.11;97056.03;30001;983;1881;-56
2022/05/22 01:46:02;;;;;;;;;;;;;;;12.66;70.55;97056.03;30001;983;1886;-56
2022/05/22 01:46:33;;;;;;;;;;;;;;;12.67;70.94;97057.63;30001;982;1869;-57
2022/05/22 01:47:06;;;;;;;;;;;;;;;12.68;70.42;97053.81;30001;982;1877;-58
2022/05/22 01:47:38;;;;;;;;;;;;;;;12.70;70.45;97050.78;30001;982;1882;-57
2022/05/22 01:48:18;;;;;;;;;;;;;;;12.69;70.08;97052.69;30001;982;1886;-57
2022/05/22 01:48:48;;;;;;;;;;;;;;;12.70;69.91;97053.50;30001;983;1881;-58
2022/05/22 01:49:19;;;;;;;;;;;;;;;12.69;70.13;97054.62;30001;983;1885;-57
2022/05/22 01:49:50;;;;;;;;;;;;;;;12.69;70.10;97052.69;30001;983;1868;-57
2022/05/22 01:50:21;;;;;;;;;;;;;;;12.69;70.45;97052.69;30001;983;1877;-58
2022/05/22 01:50:52;;;;;;;;;;;;;;;12.67;70.56;97054.91;30001;983;1881;-58
2022/05/22 01:51:24;;;;;;;;;;;;;;;12.67;70.14;97057.63;30001;983;1886;-57
2022/05/22 01:51:55;;;;;;;;;;;;;;;12.68;70.48;97048.38;30001;983;1881;-58
2022/05/22 01:52:26;;;;;;;;;;;;;;;12.68;70.23;97053.81;30001;983;1886;-56
2022/05/22 01:52:57;;;;;;;;;;;;;;;12.68;70.15;97053.00;30001;983;1882;-57
2022/05/22 01:53:28;;;;;;;;;;;;;;;12.68;70.37;97047.56;30001;983;1886;-57
2022/05/22 01:54:01;;;;;;;;;;;;;;;12.67;70.46;97052.19;30001;982;1869;-57
2022/05/22 01:54:32;;;;;;;;;;;;;;;12.67;70.13;97046.75;30001;982;1877;-57
2022/05/22 01:55:04;;;;;;;;;;;;;;;12.69;70.35;97044.53;30001;982;1882;-56
2022/05/22 01:55:35;;;;;;;;;;;;;;;12.70;69.95;97045.34;30001;982;1886;-56
2022/05/22 01:56:05;;;;;;;;;;;;;;;12.70;70.08;97040.69;30001;982;1882;-56
2022/05/22 01:56:38;;;;;;;;;;;;;;;12.72;69.77;97046.66;30001;983;1885;-56
2022/05/22 01:57:08;;;;;;;;;;;;;;;12.72;70.13;97043.13;30001;983;1881;-57
2022/05/22 01:57:40;;;;;;;;;;;;;;;12.73;70.06;97040.09;30001;983;1872;-56
2022/05/22 01:58:10;;;;;;;;;;;;;;;12.77;69.92;97050.38;30001;983;1859;-58
2022/05/22 01:58:41;;;;;;;;;;;;;;;12.75;69.51;97043.31;30001;983;1885;-58
2022/05/22 01:59:12;;;;;;;;;;;;;;;12.75;70.05;97048.78;30001;983;1868;-58
2022/05/22 01:59:43;;;;;;;;;;;;;;;12.73;69.75;97045.53;30001;983;1877;-56
2022/05/22 02:00:16;;;;;;;;;;;;;;;12.74;70.13;97051.81;30001;983;1882;-57
2022/05/22 02:00:54;;;;;;;;;;;;;;;12.71;70.14;97047.75;30001;982;1886;-56
2022/05/22 02:01:24;;;;;;;;;;;;;;;12.71;69.96;97047.75;30001;982;1882;-57
2022/05/22 02:01:56;;;;;;;;;;;;;;;12.71;70.21;97053.22;30001;982;1873;-58
2022/05/22 02:02:28;;;;;;;;;;;;;;;12.70;69.93;97057.03;30001;982;1873;-56
2022/05/22 02:03:00;;;;;;;;;;;;;;;12.71;69.77;97055.94;30001;982;1886;-57
2022/05/22 02:03:30;;;;;;;;;;;;;;;12.70;70.12;97048.88;30001;982;1882;-58
2022/05/22 02:04:04;;;;;;;;;;;;;;;12.70;70.09;97057.03;30001;983;1885;-57
2022/05/22 02:04:34;;;;;;;;;;;;;;;12.70;69.59;97056.22;30001;983;1868;-58
2022/05/22 02:05:06;;;;;;;;;;;;;;;12.71;69.90;97058.66;30001;983;1877;-58
2022/05/22 02:05:36;;;;;;;;;;;;;;;12.72;70.29;97054.81;30001;983;1881;-57
2022/05/22 02:06:07;;;;;;;;;;;;;;;12.70;70.00;97054.31;30001;983;1799;-59
2022/05/22 02:08:19;;;;;;;;;;;;;;;12.71;70.25;97050.47;30001;983;1881;-57
2022/05/22 02:08:24;;;;;;;;;;;;;;;12.71;70.22;97050.47;30001;982;1882;-57
2022/05/22 02:08:54;;;;;;;;;;;;;;;12.72;69.79;97043.94;30001;982;1886;-58
2022/05/22 02:09:34;;;;;;;;;;;;;;;12.72;69.93;97041.22;30001;982;1882;-58
2022/05/22 02:10:06;;;;;;;;;;;;;;;12.74;70.05;97040.91;30001;982;1873;-57
2022/05/22 02:10:37;;;;;;;;;;;;;;;12.74;70.14;97039.00;30001;982;1873;-57
2022/05/22 02:11:08;;;;;;;;;;;;;;;12.72;69.64;97033.03;30001;982;1886;-58
2022/05/22 02:11:39;;;;;;;;;;;;;;;12.72;69.94;97037.69;30001;983;1881;-57
2022/05/22 02:12:09;;;;;;;;;;;;;;;12.71;69.90;97036.87;30001;983;1885;-58
2022/05/22 02:12:40;;;;;;;;;;;;;;;12.72;70.33;97035.75;30001;983;1881;-58
2022/05/22 02:13:12;;;;;;;;;;;;;;;12.73;70.28;97039.28;30001;983;1841;-58
2022/05/22 02:13:44;;;;;;;;;;;;;;;12.74;70.20;97035.47;30001;983;1881;-58
2022/05/22 02:14:17;;;;;;;;;;;;;;;12.75;69.64;97037.88;30001;983;1886;-57
2022/05/22 02:14:48;;;;;;;;;;;;;;;12.77;69.93;97042.22;30001;983;1881;-57
2022/05/22 02:15:18;;;;;;;;;;;;;;;12.77;70.17;97036.78;30001;983;1873;-57
2022/05/22 02:15:50;;;;;;;;;;;;;;;12.77;70.00;97036.78;30001;982;1873;-58
2022/05/22 02:16:20;;;;;;;;;;;;;;;12.75;69.93;97043.31;30001;982;1886;-57
2022/05/22 02:16:51;;;;;;;;;;;;;;;12.77;70.08;97034.06;30001;982;1882;-58
2022/05/22 02:17:22;;;;;;;;;;;;;;;12.75;69.83;97037.88;30001;982;1886;-58
2022/05/22 02:17:53;;;;;;;;;;;;;;;12.75;70.28;97037.88;30001;982;1882;-58
2022/05/22 02:18:24;;;;;;;;;;;;;;;12.77;69.89;97034.06;30001;982;1886;-57
2022/05/22 02:18:58;;;;;;;;;;;;;;;12.77;69.68;97034.06;30001;982;1882;-58
2022/05/22 02:19:29;;;;;;;;;;;;;;;12.75;70.11;97035.16;30001;983;1885;-58
2022/05/22 02:20:00;;;;;;;;;;;;;;;12.74;69.82;97041.72;30001;983;1868;-57
2022/05/22 02:20:34;;;;;;;;;;;;;;;12.74;70.29;97035.47;30001;965;1886;-57
2022/05/22 02:21:06;;;;;;;;;;;;;;;12.72;69.83;97022.16;30001;983;1881;-57
2022/05/22 02:21:37;;;;;;;;;;;;;;;12.73;70.04;97033.84;30001;983;1886;-57
2022/05/22 02:22:11;;;;;;;;;;;;;;;12.72;69.97;97035.75;30001;983;1881;-58
2022/05/22 02:22:46;;;;;;;;;;;;;;;12.73;70.09;97031.94;30001;983;1886;-57
2022/05/22 02:23:18;;;;;;;;;;;;;;;12.73;70.19;97033.84;30001;982;1881;-57
2022/05/22 02:23:49;;;;;;;;;;;;;;;12.72;69.93;97030.31;30001;982;1886;-57
2022/05/22 02:24:19;;;;;;;;;;;;;;;12.73;70.12;97017.50;30001;982;1882;-57
2022/05/22 02:24:51;;;;;;;;;;;;;;;12.73;70.11;97026.50;30001;982;1886;-57
2022/05/22 02:25:24;;;;;;;;;;;;;;;12.73;70.20;97023.75;30001;982;1882;-57
2022/05/22 02:25:57;;;;;;;;;;;;;;;12.74;69.83;97021.84;30001;982;1873;-57
2022/05/22 02:26:28;;;;;;;;;;;;;;;12.73;70.30;97022.97;30001;982;1873;-58
2022/05/22 02:27:02;;;;;;;;;;;;;;;12.72;70.21;97016.72;30001;983;1872;-57
2022/05/22 02:27:33;;;;;;;;;;;;;;;12.72;70.30;97022.16;30001;983;1873;-58
2022/05/22 02:28:06;;;;;;;;;;;;;;;12.72;69.97;97016.72;30001;983;1885;-58
2022/05/22 02:28:38;;;;;;;;;;;;;;;12.73;69.91;97022.97;30001;983;1881;-57
2022/05/22 02:29:10;;;;;;;;;;;;;;;12.72;70.57;97016.72;30001;983;1872;-58
2022/05/22 02:29:41;;;;;;;;;;;;;;;12.73;70.34;97010.16;30001;983;1873;-57
2022/05/22 02:30:13;;;;;;;;;;;;;;;12.74;70.20;97003.59;30001;983;1886;-57
2022/05/22 02:30:46;;;;;;;;;;;;;;;12.73;70.31;97007.44;30001;982;1882;-57
2022/05/22 02:31:17;;;;;;;;;;;;;;;12.73;70.23;97004.72;30001;982;1886;-58
2022/05/22 02:31:47;;;;;;;;;;;;;;;12.74;70.28;97005.50;30001;982;1882;-57
2022/05/22 02:32:20;;;;;;;;;;;;;;;12.73;70.19;97006.63;30001;982;1886;-59
2022/05/22 02:32:51;;;;;;;;;;;;;;;12.73;70.61;97001.97;30001;982;1882;-58
2022/05/22 02:33:22;;;;;;;;;;;;;;;12.72;70.47;97000.38;30001;983;1885;-57
2022/05/22 02:33:56;;;;;;;;;;;;;;;12.74;70.53;97009.03;30001;983;1881;-57
2022/05/22 02:34:27;;;;;;;;;;;;;;;12.75;70.50;97005.22;30001;983;1872;-58
2022/05/22 02:34:58;;;;;;;;;;;;;;;12.74;70.57;97003.59;30001;983;1873;-57
2022/05/22 02:35:30;;;;;;;;;;;;;;;12.73;70.58;97003.91;30001;983;1873;-57
2022/05/22 02:36:03;;;;;;;;;;;;;;;12.70;70.52;96999.88;30001;983;1873;-58
2022/05/22 02:36:34;;;;;;;;;;;;;;;12.68;70.51;97004.00;30001;983;1872;-57
2022/05/22 02:37:06;;;;;;;;;;;;;;;12.66;70.82;97006.22;30001;962;1894;-59
2022/05/22 02:37:44;;;;;;;;;;;;;;;12.63;70.79;97002.19;30001;983;1886;-56
2022/05/22 02:38:16;;;;;;;;;;;;;;;12.61;70.79;97004.41;30001;982;1882;-56
2022/05/22 02:38:47;;;;;;;;;;;;;;;12.60;70.94;97008.22;30001;982;1886;-59
2022/05/22 02:39:19;;;;;;;;;;;;;;;12.59;70.92;96995.72;30001;982;1882;-58
2022/05/22 02:39:50;;;;;;;;;;;;;;;12.57;70.86;97000.66;30001;986;1886;-57
2022/05/22 02:40:22;;;;;;;;;;;;;;;12.57;70.96;96997.94;30001;982;1869;-57
2022/05/22 02:40:53;;;;;;;;;;;;;;;12.56;71.15;97001.78;30001;983;1876;-57
2022/05/22 02:41:25;;;;;;;;;;;;;;;12.55;71.29;96996.63;30001;983;1868;-57
2022/05/22 02:42:05;;;;;;;;;;;;;;;12.56;71.09;97000.97;30001;983;1877;-57
2022/05/22 02:42:40;;;;;;;;;;;;;;;12.55;71.02;97000.16;30001;983;1881;-57
2022/05/22 02:43:11;;;;;;;;;;;;;;;12.55;70.97;97000.16;30001;983;1886;-57
2022/05/22 02:43:42;;;;;;;;;;;;;;;12.53;71.05;96996.13;30001;983;1881;-59
2022/05/22 02:44:13;;;;;;;;;;;;;;;12.55;71.23;97005.59;30001;983;1886;-58
2022/05/22 02:44:44;;;;;;;;;;;;;;;12.55;71.11;97011.03;30001;983;1881;-57
2022/05/22 02:45:16;;;;;;;;;;;;;;;12.54;71.17;97004.00;30001;983;1886;-57
2022/05/22 02:45:47;;;;;;;;;;;;;;;12.54;70.89;97004.00;30001;982;1882;-57
2022/05/22 02:46:19;;;;;;;;;;;;;;;12.53;70.98;97007.00;30001;982;1873;-58
2022/05/22 02:46:50;;;;;;;;;;;;;;;12.52;70.68;97000.75;30001;982;1873;-56
2022/05/22 02:47:21;;;;;;;;;;;;;;;12.50;71.06;97008.41;30001;982;1886;-58
2022/05/22 02:47:53;;;;;;;;;;;;;;;12.49;71.18;96998.66;30001;982;1882;-57
2022/05/22 02:48:24;;;;;;;;;;;;;;;12.47;71.62;97009.06;30001;983;1885;-57
2022/05/22 02:48:55;;;;;;;;;;;;;;;12.45;71.30;96997.66;30001;983;1881;-58
2022/05/22 02:49:26;;;;;;;;;;;;;;;12.43;71.33;96997.16;30001;983;1872;-58
2022/05/22 02:49:57;;;;;;;;;;;;;;;12.42;71.41;97003.72;30001;982;1872;-57
2022/05/22 02:50:28;;;;;;;;;;;;;;;12.42;71.46;97000.97;30001;983;1885;-57
2022/05/22 02:50:59;;;;;;;;;;;;;;;12.42;71.68;97000.97;30001;983;1881;-58
2022/05/22 02:51:30;;;;;;;;;;;;;;;12.41;71.39;97004.81;30001;983;1872;-60
2022/05/22 02:52:01;;;;;;;;;;;;;;;12.40;71.61;97008.63;30001;983;1873;-57
2022/05/22 02:52:32;;;;;;;;;;;;;;;12.42;71.37;96995.53;30001;983;1886;-57
2022/05/22 02:53:03;;;;;;;;;;;;;;;12.41;71.17;97004.81;30001;983;1881;-57
2022/05/22 02:53:34;;;;;;;;;;;;;;;12.43;71.44;97001.78;30001;982;1886;-57
2022/05/22 02:54:04;;;;;;;;;;;;;;;12.43;71.49;97002.59;30001;982;1794;-57